sensor_id;sensor_type;location;lat;lon;timestamp;P1;durP1;ratioP1;P2;durP2;ratioP2
34234;SDS011;20500;49.856;20.290;2024-03-22T00:01:24;52.10;;;35.30;;
34234;SDS011;20500;49.856;20.290;2024-03-22T00:04:29;48.90;;;34.80;;
34234;SDS011;20500;49.856;20.290;2024-03-22T00:07:34;46.70;;;33.10;;
34234;SDS011;20500;49.856;20.290;2024-03-22T00:10:40;43.20;;;30.50;;
34234;SDS011;20500;49.856;20.290;2024-03-22T00:13:45;44.40;;;30.00;;
34234;SDS011;20500;49.856;20.290;2024-03-22T00:16:50;42.70;;;29.20;;
34234;SDS011;20500;49.856;20.290;2024-03-22T00:19:55;43.70;;;29.20;;
34234;SDS011;20500;49.856;20.290;2024-03-22T00:23:00;46.10;;;30.30;;
34234;SDS011;20500;49.856;20.290;2024-03-22T00:26:05;45.70;;;30.80;;
34234;SDS011;20500;49.856;20.290;2024-03-22T00:29:10;43.20;;;29.80;;
34234;SDS011;20500;49.856;20.290;2024-03-22T00:32:15;47.80;;;31.60;;
34234;SDS011;20500;49.856;20.290;2024-03-22T00:35:20;48.50;;;32.90;;
34234;SDS011;20500;49.856;20.290;2024-03-22T00:38:25;50.70;;;33.10;;
34234;SDS011;20500;49.856;20.290;2024-03-22T00:41:31;46.60;;;32.80;;
34234;SDS011;20500;49.856;20.290;2024-03-22T00:44:36;48.40;;;32.60;;
34234;SDS011;20500;49.856;20.290;2024-03-22T00:47:41;49.00;;;34.50;;
34234;SDS011;20500;49.856;20.290;2024-03-22T00:50:46;52.10;;;35.90;;
34234;SDS011;20500;49.856;20.290;2024-03-22T00:53:51;56.80;;;40.60;;
34234;SDS011;20500;49.856;20.290;2024-03-22T00:56:56;51.90;;;36.40;;
34234;SDS011;20500;49.856;20.290;2024-03-22T01:00:01;53.70;;;37.20;;
34234;SDS011;20500;49.856;20.290;2024-03-22T01:03:07;54.10;;;37.10;;
34234;SDS011;20500;49.856;20.290;2024-03-22T01:06:12;50.70;;;35.00;;
34234;SDS011;20500;49.856;20.290;2024-03-22T01:09:17;52.70;;;36.10;;
34234;SDS011;20500;49.856;20.290;2024-03-22T01:12:23;56.00;;;39.40;;
34234;SDS011;20500;49.856;20.290;2024-03-22T01:15:28;54.30;;;36.50;;
34234;SDS011;20500;49.856;20.290;2024-03-22T01:18:33;51.80;;;37.70;;
34234;SDS011;20500;49.856;20.290;2024-03-22T01:21:38;54.60;;;37.40;;
34234;SDS011;20500;49.856;20.290;2024-03-22T01:24:43;55.40;;;36.60;;
34234;SDS011;20500;49.856;20.290;2024-03-22T01:27:48;51.30;;;35.80;;
34234;SDS011;20500;49.856;20.290;2024-03-22T01:30:53;52.50;;;36.40;;
34234;SDS011;20500;49.856;20.290;2024-03-22T01:33:58;52.80;;;37.20;;
34234;SDS011;20500;49.856;20.290;2024-03-22T01:37:03;51.80;;;36.40;;
34234;SDS011;20500;49.856;20.290;2024-03-22T01:40:10;53.20;;;36.50;;
34234;SDS011;20500;49.856;20.290;2024-03-22T01:43:16;49.40;;;32.70;;
34234;SDS011;20500;49.856;20.290;2024-03-22T01:46:21;48.00;;;31.40;;
34234;SDS011;20500;49.856;20.290;2024-03-22T01:49:26;41.70;;;28.90;;
34234;SDS011;20500;49.856;20.290;2024-03-22T01:52:32;44.50;;;29.90;;
34234;SDS011;20500;49.856;20.290;2024-03-22T01:55:37;41.50;;;28.30;;
34234;SDS011;20500;49.856;20.290;2024-03-22T01:58:42;38.70;;;26.90;;
34234;SDS011;20500;49.856;20.290;2024-03-22T02:01:47;37.70;;;27.50;;
34234;SDS011;20500;49.856;20.290;2024-03-22T02:04:53;38.60;;;26.80;;
34234;SDS011;20500;49.856;20.290;2024-03-22T02:07:58;39.50;;;26.60;;
34234;SDS011;20500;49.856;20.290;2024-03-22T02:11:03;36.30;;;24.70;;
34234;SDS011;20500;49.856;20.290;2024-03-22T02:14:08;36.20;;;25.60;;
34234;SDS011;20500;49.856;20.290;2024-03-22T02:17:13;35.90;;;24.80;;
34234;SDS011;20500;49.856;20.290;2024-03-22T02:20:18;35.20;;;23.30;;
34234;SDS011;20500;49.856;20.290;2024-03-22T02:23:26;36.80;;;24.50;;
34234;SDS011;20500;49.856;20.290;2024-03-22T02:26:35;39.30;;;25.30;;
34234;SDS011;20500;49.856;20.290;2024-03-22T02:29:40;37.30;;;25.00;;
34234;SDS011;20500;49.856;20.290;2024-03-22T02:32:45;37.20;;;24.90;;
34234;SDS011;20500;49.856;20.290;2024-03-22T02:35:50;36.30;;;24.90;;
34234;SDS011;20500;49.856;20.290;2024-03-22T02:38:55;35.50;;;24.10;;
34234;SDS011;20500;49.856;20.290;2024-03-22T02:42:00;36.90;;;24.70;;
34234;SDS011;20500;49.856;20.290;2024-03-22T02:45:06;37.80;;;24.70;;
34234;SDS011;20500;49.856;20.290;2024-03-22T02:48:12;33.60;;;24.20;;
34234;SDS011;20500;49.856;20.290;2024-03-22T02:51:17;34.70;;;23.60;;
34234;SDS011;20500;49.856;20.290;2024-03-22T02:54:22;37.70;;;24.10;;
34234;SDS011;20500;49.856;20.290;2024-03-22T02:57:27;37.70;;;25.20;;
34234;SDS011;20500;49.856;20.290;2024-03-22T03:00:32;35.10;;;24.20;;
34234;SDS011;20500;49.856;20.290;2024-03-22T03:03:40;35.70;;;24.50;;
34234;SDS011;20500;49.856;20.290;2024-03-22T03:06:46;36.30;;;24.80;;
34234;SDS011;20500;49.856;20.290;2024-03-22T03:09:51;40.30;;;26.20;;
34234;SDS011;20500;49.856;20.290;2024-03-22T03:12:56;38.80;;;25.20;;
34234;SDS011;20500;49.856;20.290;2024-03-22T03:16:02;38.10;;;25.80;;
34234;SDS011;20500;49.856;20.290;2024-03-22T03:22:11;35.60;;;25.20;;
34234;SDS011;20500;49.856;20.290;2024-03-22T03:25:16;37.30;;;26.20;;
34234;SDS011;20500;49.856;20.290;2024-03-22T03:28:20;35.70;;;25.20;;
34234;SDS011;20500;49.856;20.290;2024-03-22T03:31:28;35.50;;;25.40;;
34234;SDS011;20500;49.856;20.290;2024-03-22T03:34:33;37.80;;;25.90;;
34234;SDS011;20500;49.856;20.290;2024-03-22T03:37:38;37.10;;;26.10;;
34234;SDS011;20500;49.856;20.290;2024-03-22T03:40:44;35.50;;;25.20;;
34234;SDS011;20500;49.856;20.290;2024-03-22T03:43:48;38.30;;;26.00;;
34234;SDS011;20500;49.856;20.290;2024-03-22T03:46:53;37.80;;;26.60;;
34234;SDS011;20500;49.856;20.290;2024-03-22T03:49:59;36.40;;;25.80;;
34234;SDS011;20500;49.856;20.290;2024-03-22T03:53:04;35.80;;;26.80;;
34234;SDS011;20500;49.856;20.290;2024-03-22T03:56:09;38.10;;;26.20;;
34234;SDS011;20500;49.856;20.290;2024-03-22T03:59:14;38.00;;;26.10;;
34234;SDS011;20500;49.856;20.290;2024-03-22T04:02:20;37.20;;;26.30;;
34234;SDS011;20500;49.856;20.290;2024-03-22T04:05:25;37.30;;;26.10;;
34234;SDS011;20500;49.856;20.290;2024-03-22T04:08:31;37.00;;;25.70;;
34234;SDS011;20500;49.856;20.290;2024-03-22T04:11:36;36.20;;;26.60;;
34234;SDS011;20500;49.856;20.290;2024-03-22T04:14:41;40.50;;;25.70;;
34234;SDS011;20500;49.856;20.290;2024-03-22T04:17:46;36.20;;;26.10;;
34234;SDS011;20500;49.856;20.290;2024-03-22T04:20:55;38.60;;;26.70;;
34234;SDS011;20500;49.856;20.290;2024-03-22T04:24:01;37.50;;;26.60;;
34234;SDS011;20500;49.856;20.290;2024-03-22T04:27:06;36.60;;;27.70;;
34234;SDS011;20500;49.856;20.290;2024-03-22T04:30:12;40.00;;;27.30;;
34234;SDS011;20500;49.856;20.290;2024-03-22T04:33:17;38.00;;;27.40;;
34234;SDS011;20500;49.856;20.290;2024-03-22T04:36:23;40.70;;;29.00;;
34234;SDS011;20500;49.856;20.290;2024-03-22T04:39:28;42.00;;;28.80;;
34234;SDS011;20500;49.856;20.290;2024-03-22T04:42:33;41.60;;;29.40;;
34234;SDS011;20500;49.856;20.290;2024-03-22T04:45:38;40.70;;;29.70;;
34234;SDS011;20500;49.856;20.290;2024-03-22T04:48:44;41.20;;;28.60;;
34234;SDS011;20500;49.856;20.290;2024-03-22T04:51:49;38.70;;;29.80;;
34234;SDS011;20500;49.856;20.290;2024-03-22T04:54:54;42.20;;;29.90;;
34234;SDS011;20500;49.856;20.290;2024-03-22T04:57:59;40.80;;;30.50;;
34234;SDS011;20500;49.856;20.290;2024-03-22T05:01:04;41.70;;;31.70;;
34234;SDS011;20500;49.856;20.290;2024-03-22T05:04:09;38.00;;;28.60;;
34234;SDS011;20500;49.856;20.290;2024-03-22T05:07:14;41.10;;;29.80;;
34234;SDS011;20500;49.856;20.290;2024-03-22T05:10:19;40.20;;;30.10;;
34234;SDS011;20500;49.856;20.290;2024-03-22T05:13:24;41.00;;;29.70;;
34234;SDS011;20500;49.856;20.290;2024-03-22T05:16:30;42.50;;;29.70;;
34234;SDS011;20500;49.856;20.290;2024-03-22T05:19:34;43.10;;;30.60;;
34234;SDS011;20500;49.856;20.290;2024-03-22T05:22:39;39.10;;;29.60;;
34234;SDS011;20500;49.856;20.290;2024-03-22T05:25:44;42.90;;;30.10;;
34234;SDS011;20500;49.856;20.290;2024-03-22T05:28:49;38.70;;;30.40;;
34234;SDS011;20500;49.856;20.290;2024-03-22T05:31:55;36.90;;;27.90;;
34234;SDS011;20500;49.856;20.290;2024-03-22T05:35:00;38.80;;;29.20;;
34234;SDS011;20500;49.856;20.290;2024-03-22T05:38:05;37.70;;;28.70;;
34234;SDS011;20500;49.856;20.290;2024-03-22T05:41:10;38.80;;;28.10;;
34234;SDS011;20500;49.856;20.290;2024-03-22T05:44:14;40.40;;;29.40;;
34234;SDS011;20500;49.856;20.290;2024-03-22T05:47:19;37.00;;;28.10;;
34234;SDS011;20500;49.856;20.290;2024-03-22T05:50:39;38.00;;;27.40;;
34234;SDS011;20500;49.856;20.290;2024-03-22T05:53:45;36.50;;;27.10;;
34234;SDS011;20500;49.856;20.290;2024-03-22T05:56:50;36.00;;;27.60;;
34234;SDS011;20500;49.856;20.290;2024-03-22T05:59:55;36.40;;;26.30;;
34234;SDS011;20500;49.856;20.290;2024-03-22T06:03:00;38.50;;;27.60;;
34234;SDS011;20500;49.856;20.290;2024-03-22T06:06:06;37.90;;;27.50;;
34234;SDS011;20500;49.856;20.290;2024-03-22T06:09:11;40.80;;;29.00;;
34234;SDS011;20500;49.856;20.290;2024-03-22T06:12:21;42.20;;;30.40;;
34234;SDS011;20500;49.856;20.290;2024-03-22T06:15:27;39.30;;;29.50;;
34234;SDS011;20500;49.856;20.290;2024-03-22T06:18:33;37.60;;;27.80;;
34234;SDS011;20500;49.856;20.290;2024-03-22T06:21:38;34.40;;;26.70;;
34234;SDS011;20500;49.856;20.290;2024-03-22T06:24:43;38.20;;;27.40;;
34234;SDS011;20500;49.856;20.290;2024-03-22T06:30:53;35.60;;;25.90;;
34234;SDS011;20500;49.856;20.290;2024-03-22T06:33:58;34.50;;;26.80;;
34234;SDS011;20500;49.856;20.290;2024-03-22T06:37:04;35.00;;;26.60;;
34234;SDS011;20500;49.856;20.290;2024-03-22T06:40:11;35.10;;;26.90;;
34234;SDS011;20500;49.856;20.290;2024-03-22T06:43:16;34.40;;;26.10;;
34234;SDS011;20500;49.856;20.290;2024-03-22T06:46:21;35.10;;;26.90;;
34234;SDS011;20500;49.856;20.290;2024-03-22T06:49:27;35.10;;;27.00;;
34234;SDS011;20500;49.856;20.290;2024-03-22T06:52:32;34.80;;;26.40;;
34234;SDS011;20500;49.856;20.290;2024-03-22T06:55:37;36.50;;;26.00;;
34234;SDS011;20500;49.856;20.290;2024-03-22T06:58:42;32.60;;;24.80;;
34234;SDS011;20500;49.856;20.290;2024-03-22T07:01:47;32.90;;;25.70;;
34234;SDS011;20500;49.856;20.290;2024-03-22T07:04:52;33.50;;;25.10;;
34234;SDS011;20500;49.856;20.290;2024-03-22T07:07:57;31.80;;;24.30;;
34234;SDS011;20500;49.856;20.290;2024-03-22T07:11:06;34.60;;;26.50;;
34234;SDS011;20500;49.856;20.290;2024-03-22T07:14:11;32.20;;;25.70;;
34234;SDS011;20500;49.856;20.290;2024-03-22T07:17:16;33.90;;;25.10;;
34234;SDS011;20500;49.856;20.290;2024-03-22T07:20:26;32.30;;;25.40;;
34234;SDS011;20500;49.856;20.290;2024-03-22T07:23:31;32.40;;;25.10;;
34234;SDS011;20500;49.856;20.290;2024-03-22T07:26:36;32.50;;;24.40;;
34234;SDS011;20500;49.856;20.290;2024-03-22T07:29:41;33.70;;;25.20;;
34234;SDS011;20500;49.856;20.290;2024-03-22T07:32:47;30.70;;;24.50;;
34234;SDS011;20500;49.856;20.290;2024-03-22T07:35:52;30.70;;;24.70;;
34234;SDS011;20500;49.856;20.290;2024-03-22T07:38:57;32.10;;;25.30;;
34234;SDS011;20500;49.856;20.290;2024-03-22T07:42:03;32.10;;;24.50;;
34234;SDS011;20500;49.856;20.290;2024-03-22T07:45:09;32.50;;;25.50;;
34234;SDS011;20500;49.856;20.290;2024-03-22T07:48:14;35.20;;;26.80;;
34234;SDS011;20500;49.856;20.290;2024-03-22T07:51:19;33.10;;;25.70;;
34234;SDS011;20500;49.856;20.290;2024-03-22T07:54:24;31.60;;;24.60;;
34234;SDS011;20500;49.856;20.290;2024-03-22T07:57:29;30.90;;;24.00;;
34234;SDS011;20500;49.856;20.290;2024-03-22T08:00:34;32.10;;;24.90;;
34234;SDS011;20500;49.856;20.290;2024-03-22T08:03:39;31.40;;;24.20;;
34234;SDS011;20500;49.856;20.290;2024-03-22T08:06:45;33.70;;;25.70;;
34234;SDS011;20500;49.856;20.290;2024-03-22T08:12:54;32.00;;;24.30;;
34234;SDS011;20500;49.856;20.290;2024-03-22T08:15:59;30.70;;;23.20;;
34234;SDS011;20500;49.856;20.290;2024-03-22T08:19:04;31.80;;;23.90;;
34234;SDS011;20500;49.856;20.290;2024-03-22T08:22:09;30.70;;;24.50;;
34234;SDS011;20500;49.856;20.290;2024-03-22T08:25:14;30.00;;;24.00;;
34234;SDS011;20500;49.856;20.290;2024-03-22T08:28:22;35.20;;;26.60;;
34234;SDS011;20500;49.856;20.290;2024-03-22T08:31:39;34.70;;;26.50;;
34234;SDS011;20500;49.856;20.290;2024-03-22T08:34:45;33.70;;;26.10;;
34234;SDS011;20500;49.856;20.290;2024-03-22T08:37:50;32.70;;;25.90;;
34234;SDS011;20500;49.856;20.290;2024-03-22T08:40:55;33.00;;;27.10;;
34234;SDS011;20500;49.856;20.290;2024-03-22T08:44:00;33.90;;;25.70;;
34234;SDS011;20500;49.856;20.290;2024-03-22T08:47:05;32.10;;;25.10;;
34234;SDS011;20500;49.856;20.290;2024-03-22T08:50:11;31.60;;;25.00;;
34234;SDS011;20500;49.856;20.290;2024-03-22T08:53:17;31.20;;;25.20;;
34234;SDS011;20500;49.856;20.290;2024-03-22T08:56:23;32.70;;;25.20;;
34234;SDS011;20500;49.856;20.290;2024-03-22T08:59:28;31.00;;;23.60;;
34234;SDS011;20500;49.856;20.290;2024-03-22T09:02:33;28.50;;;21.90;;
34234;SDS011;20500;49.856;20.290;2024-03-22T09:05:37;28.90;;;22.20;;
34234;SDS011;20500;49.856;20.290;2024-03-22T09:08:54;29.20;;;24.10;;
34234;SDS011;20500;49.856;20.290;2024-03-22T09:12:00;30.60;;;24.80;;
34234;SDS011;20500;49.856;20.290;2024-03-22T09:15:07;30.50;;;24.60;;
34234;SDS011;20500;49.856;20.290;2024-03-22T09:18:13;31.80;;;25.80;;
34234;SDS011;20500;49.856;20.290;2024-03-22T09:21:18;31.80;;;25.10;;
34234;SDS011;20500;49.856;20.290;2024-03-22T09:24:23;33.30;;;26.60;;
34234;SDS011;20500;49.856;20.290;2024-03-22T09:27:28;32.90;;;26.60;;
34234;SDS011;20500;49.856;20.290;2024-03-22T09:30:33;33.20;;;26.20;;
34234;SDS011;20500;49.856;20.290;2024-03-22T09:33:47;33.50;;;26.40;;
34234;SDS011;20500;49.856;20.290;2024-03-22T09:36:52;34.20;;;27.20;;
34234;SDS011;20500;49.856;20.290;2024-03-22T09:39:57;34.50;;;28.10;;
34234;SDS011;20500;49.856;20.290;2024-03-22T09:43:02;33.00;;;27.70;;
34234;SDS011;20500;49.856;20.290;2024-03-22T09:46:10;33.70;;;27.20;;
34234;SDS011;20500;49.856;20.290;2024-03-22T09:49:17;35.10;;;27.40;;
34234;SDS011;20500;49.856;20.290;2024-03-22T09:52:22;35.20;;;28.40;;
34234;SDS011;20500;49.856;20.290;2024-03-22T09:55:29;34.80;;;27.70;;
34234;SDS011;20500;49.856;20.290;2024-03-22T09:58:36;35.30;;;28.30;;
34234;SDS011;20500;49.856;20.290;2024-03-22T10:01:41;32.60;;;28.10;;
34234;SDS011;20500;49.856;20.290;2024-03-22T10:04:48;35.70;;;27.30;;
34234;SDS011;20500;49.856;20.290;2024-03-22T10:07:53;32.90;;;26.00;;
34234;SDS011;20500;49.856;20.290;2024-03-22T10:11:01;30.80;;;24.70;;
34234;SDS011;20500;49.856;20.290;2024-03-22T10:14:06;31.30;;;24.20;;
34234;SDS011;20500;49.856;20.290;2024-03-22T10:17:20;28.90;;;23.00;;
34234;SDS011;20500;49.856;20.290;2024-03-22T10:20:25;29.90;;;22.50;;
34234;SDS011;20500;49.856;20.290;2024-03-22T10:23:31;28.60;;;20.20;;
34234;SDS011;20500;49.856;20.290;2024-03-22T10:26:36;26.80;;;20.20;;
34234;SDS011;20500;49.856;20.290;2024-03-22T10:29:41;23.00;;;18.20;;
34234;SDS011;20500;49.856;20.290;2024-03-22T10:32:48;26.20;;;18.80;;
34234;SDS011;20500;49.856;20.290;2024-03-22T10:35:53;24.60;;;18.10;;
34234;SDS011;20500;49.856;20.290;2024-03-22T10:38:59;27.30;;;18.50;;
34234;SDS011;20500;49.856;20.290;2024-03-22T10:42:07;24.70;;;18.30;;
34234;SDS011;20500;49.856;20.290;2024-03-22T10:45:12;25.10;;;18.00;;
34234;SDS011;20500;49.856;20.290;2024-03-22T10:48:17;24.00;;;17.30;;
34234;SDS011;20500;49.856;20.290;2024-03-22T10:51:25;23.60;;;17.20;;
34234;SDS011;20500;49.856;20.290;2024-03-22T10:54:32;26.10;;;17.10;;
34234;SDS011;20500;49.856;20.290;2024-03-22T10:57:41;24.10;;;17.80;;
34234;SDS011;20500;49.856;20.290;2024-03-22T11:00:47;24.90;;;17.60;;
34234;SDS011;20500;49.856;20.290;2024-03-22T11:04:03;22.00;;;16.40;;
34234;SDS011;20500;49.856;20.290;2024-03-22T11:07:13;23.80;;;15.70;;
34234;SDS011;20500;49.856;20.290;2024-03-22T11:10:31;22.80;;;14.20;;
34234;SDS011;20500;49.856;20.290;2024-03-22T11:13:38;21.70;;;13.50;;
34234;SDS011;20500;49.856;20.290;2024-03-22T11:16:44;23.50;;;14.30;;
34234;SDS011;20500;49.856;20.290;2024-03-22T11:19:49;21.00;;;13.70;;
34234;SDS011;20500;49.856;20.290;2024-03-22T11:22:54;20.90;;;13.70;;
34234;SDS011;20500;49.856;20.290;2024-03-22T11:25:59;22.00;;;14.20;;
34234;SDS011;20500;49.856;20.290;2024-03-22T11:29:04;21.50;;;14.30;;
34234;SDS011;20500;49.856;20.290;2024-03-22T11:32:11;20.10;;;14.00;;
34234;SDS011;20500;49.856;20.290;2024-03-22T11:35:16;22.00;;;15.40;;
34234;SDS011;20500;49.856;20.290;2024-03-22T11:38:21;21.10;;;15.70;;
34234;SDS011;20500;49.856;20.290;2024-03-22T11:41:29;23.00;;;15.80;;
34234;SDS011;20500;49.856;20.290;2024-03-22T11:44:35;23.10;;;16.60;;
34234;SDS011;20500;49.856;20.290;2024-03-22T11:47:42;22.90;;;17.10;;
34234;SDS011;20500;49.856;20.290;2024-03-22T11:50:48;25.10;;;17.70;;
34234;SDS011;20500;49.856;20.290;2024-03-22T11:53:53;26.20;;;18.70;;
34234;SDS011;20500;49.856;20.290;2024-03-22T11:56:58;24.70;;;18.90;;
34234;SDS011;20500;49.856;20.290;2024-03-22T12:00:06;23.40;;;18.00;;
34234;SDS011;20500;49.856;20.290;2024-03-22T12:03:32;23.50;;;16.70;;
34234;SDS011;20500;49.856;20.290;2024-03-22T12:06:38;25.80;;;18.20;;
34234;SDS011;20500;49.856;20.290;2024-03-22T12:09:44;25.40;;;19.00;;
34234;SDS011;20500;49.856;20.290;2024-03-22T12:12:50;25.70;;;19.80;;
34234;SDS011;20500;49.856;20.290;2024-03-22T12:15:56;24.00;;;19.00;;
34234;SDS011;20500;49.856;20.290;2024-03-22T12:19:01;24.80;;;19.80;;
34234;SDS011;20500;49.856;20.290;2024-03-22T12:22:06;26.50;;;18.70;;
34234;SDS011;20500;49.856;20.290;2024-03-22T12:25:11;25.60;;;18.30;;
34234;SDS011;20500;49.856;20.290;2024-03-22T12:28:16;24.50;;;16.80;;
34234;SDS011;20500;49.856;20.290;2024-03-22T12:31:21;25.90;;;18.20;;
34234;SDS011;20500;49.856;20.290;2024-03-22T12:34:26;26.40;;;18.60;;
34234;SDS011;20500;49.856;20.290;2024-03-22T12:37:31;23.70;;;18.10;;
34234;SDS011;20500;49.856;20.290;2024-03-22T12:40:38;24.50;;;18.30;;
34234;SDS011;20500;49.856;20.290;2024-03-22T12:43:43;24.90;;;18.20;;
34234;SDS011;20500;49.856;20.290;2024-03-22T12:47:00;24.80;;;18.10;;
34234;SDS011;20500;49.856;20.290;2024-03-22T12:50:08;25.20;;;20.00;;
34234;SDS011;20500;49.856;20.290;2024-03-22T12:53:15;25.10;;;18.40;;
34234;SDS011;20500;49.856;20.290;2024-03-22T12:56:20;24.70;;;17.80;;
34234;SDS011;20500;49.856;20.290;2024-03-22T12:59:26;24.10;;;18.60;;
34234;SDS011;20500;49.856;20.290;2024-03-22T13:02:31;25.20;;;20.00;;
34234;SDS011;20500;49.856;20.290;2024-03-22T13:05:36;26.50;;;19.70;;
34234;SDS011;20500;49.856;20.290;2024-03-22T13:08:41;23.90;;;18.40;;
34234;SDS011;20500;49.856;20.290;2024-03-22T13:11:46;26.30;;;19.30;;
34234;SDS011;20500;49.856;20.290;2024-03-22T13:14:51;25.80;;;20.40;;
34234;SDS011;20500;49.856;20.290;2024-03-22T13:18:14;28.00;;;19.30;;
34234;SDS011;20500;49.856;20.290;2024-03-22T13:21:19;24.30;;;18.50;;
34234;SDS011;20500;49.856;20.290;2024-03-22T13:24:24;24.60;;;19.70;;
34234;SDS011;20500;49.856;20.290;2024-03-22T13:27:29;25.10;;;19.70;;
34234;SDS011;20500;49.856;20.290;2024-03-22T13:30:34;24.70;;;19.10;;
34234;SDS011;20500;49.856;20.290;2024-03-22T13:33:40;27.40;;;21.40;;
34234;SDS011;20500;49.856;20.290;2024-03-22T13:36:45;24.40;;;19.00;;
34234;SDS011;20500;49.856;20.290;2024-03-22T13:39:50;25.30;;;19.30;;
34234;SDS011;20500;49.856;20.290;2024-03-22T13:42:55;26.00;;;19.20;;
34234;SDS011;20500;49.856;20.290;2024-03-22T13:46:01;24.10;;;18.20;;
34234;SDS011;20500;49.856;20.290;2024-03-22T13:49:06;23.50;;;18.80;;
34234;SDS011;20500;49.856;20.290;2024-03-22T13:52:19;24.00;;;18.10;;
34234;SDS011;20500;49.856;20.290;2024-03-22T13:55:24;27.20;;;18.90;;
34234;SDS011;20500;49.856;20.290;2024-03-22T13:58:29;22.90;;;18.10;;
34234;SDS011;20500;49.856;20.290;2024-03-22T14:01:34;24.20;;;19.10;;
34234;SDS011;20500;49.856;20.290;2024-03-22T14:04:40;22.90;;;18.00;;
34234;SDS011;20500;49.856;20.290;2024-03-22T14:07:45;24.60;;;18.10;;
34234;SDS011;20500;49.856;20.290;2024-03-22T14:10:50;22.50;;;16.70;;
34234;SDS011;20500;49.856;20.290;2024-03-22T14:13:55;24.30;;;18.20;;
34234;SDS011;20500;49.856;20.290;2024-03-22T14:17:00;24.20;;;17.40;;
34234;SDS011;20500;49.856;20.290;2024-03-22T14:20:08;23.30;;;17.80;;
34234;SDS011;20500;49.856;20.290;2024-03-22T14:23:14;25.50;;;19.30;;
34234;SDS011;20500;49.856;20.290;2024-03-22T14:26:19;24.20;;;18.10;;
34234;SDS011;20500;49.856;20.290;2024-03-22T14:29:26;25.00;;;19.60;;
34234;SDS011;20500;49.856;20.290;2024-03-22T14:32:31;28.80;;;19.90;;
34234;SDS011;20500;49.856;20.290;2024-03-22T14:35:36;23.60;;;18.00;;
34234;SDS011;20500;49.856;20.290;2024-03-22T14:38:41;26.70;;;18.60;;
34234;SDS011;20500;49.856;20.290;2024-03-22T14:41:46;27.60;;;19.20;;
34234;SDS011;20500;49.856;20.290;2024-03-22T14:44:51;24.80;;;19.30;;
34234;SDS011;20500;49.856;20.290;2024-03-22T14:47:58;25.60;;;19.30;;
34234;SDS011;20500;49.856;20.290;2024-03-22T14:51:03;27.40;;;20.00;;
34234;SDS011;20500;49.856;20.290;2024-03-22T14:54:09;24.20;;;19.20;;
34234;SDS011;20500;49.856;20.290;2024-03-22T14:57:14;26.90;;;18.90;;
34234;SDS011;20500;49.856;20.290;2024-03-22T15:00:19;26.40;;;19.50;;
34234;SDS011;20500;49.856;20.290;2024-03-22T15:03:28;24.70;;;19.60;;
34234;SDS011;20500;49.856;20.290;2024-03-22T15:06:34;25.20;;;19.50;;
34234;SDS011;20500;49.856;20.290;2024-03-22T15:09:39;26.10;;;18.70;;
34234;SDS011;20500;49.856;20.290;2024-03-22T15:12:44;26.80;;;19.80;;
34234;SDS011;20500;49.856;20.290;2024-03-22T15:15:55;26.60;;;20.10;;
34234;SDS011;20500;49.856;20.290;2024-03-22T15:19:01;24.90;;;19.40;;
34234;SDS011;20500;49.856;20.290;2024-03-22T15:22:07;27.10;;;19.90;;
34234;SDS011;20500;49.856;20.290;2024-03-22T15:25:12;26.10;;;19.70;;
34234;SDS011;20500;49.856;20.290;2024-03-22T15:28:17;26.90;;;21.30;;
34234;SDS011;20500;49.856;20.290;2024-03-22T15:31:22;25.20;;;20.20;;
34234;SDS011;20500;49.856;20.290;2024-03-22T15:34:27;26.30;;;20.30;;
34234;SDS011;20500;49.856;20.290;2024-03-22T15:37:32;25.20;;;19.50;;
34234;SDS011;20500;49.856;20.290;2024-03-22T15:40:37;25.30;;;19.20;;
34234;SDS011;20500;49.856;20.290;2024-03-22T15:43:42;28.10;;;20.80;;
34234;SDS011;20500;49.856;20.290;2024-03-22T15:46:48;30.10;;;19.50;;
34234;SDS011;20500;49.856;20.290;2024-03-22T15:49:53;25.80;;;19.60;;
34234;SDS011;20500;49.856;20.290;2024-03-22T15:52:58;25.90;;;20.30;;
34234;SDS011;20500;49.856;20.290;2024-03-22T15:56:04;25.00;;;18.90;;
34234;SDS011;20500;49.856;20.290;2024-03-22T15:59:10;25.40;;;19.90;;
34234;SDS011;20500;49.856;20.290;2024-03-22T16:02:15;26.50;;;18.40;;
34234;SDS011;20500;49.856;20.290;2024-03-22T16:05:23;27.40;;;19.50;;
34234;SDS011;20500;49.856;20.290;2024-03-22T16:08:29;28.30;;;21.60;;
34234;SDS011;20500;49.856;20.290;2024-03-22T16:11:34;26.20;;;19.30;;
34234;SDS011;20500;49.856;20.290;2024-03-22T16:14:39;26.30;;;19.30;;
34234;SDS011;20500;49.856;20.290;2024-03-22T16:17:44;25.00;;;19.60;;
34234;SDS011;20500;49.856;20.290;2024-03-22T16:20:50;27.00;;;20.00;;
34234;SDS011;20500;49.856;20.290;2024-03-22T16:23:55;26.60;;;19.00;;
34234;SDS011;20500;49.856;20.290;2024-03-22T16:27:00;26.40;;;19.50;;
34234;SDS011;20500;49.856;20.290;2024-03-22T16:30:07;26.60;;;20.00;;
34234;SDS011;20500;49.856;20.290;2024-03-22T16:33:13;25.30;;;18.70;;
34234;SDS011;20500;49.856;20.290;2024-03-22T16:36:18;26.90;;;19.90;;
34234;SDS011;20500;49.856;20.290;2024-03-22T16:39:25;25.90;;;19.30;;
34234;SDS011;20500;49.856;20.290;2024-03-22T16:42:30;27.10;;;19.70;;
34234;SDS011;20500;49.856;20.290;2024-03-22T16:45:47;25.10;;;19.50;;
34234;SDS011;20500;49.856;20.290;2024-03-22T16:48:52;27.40;;;20.70;;
34234;SDS011;20500;49.856;20.290;2024-03-22T16:51:57;27.50;;;19.60;;
34234;SDS011;20500;49.856;20.290;2024-03-22T16:55:02;28.40;;;20.80;;
34234;SDS011;20500;49.856;20.290;2024-03-22T16:58:10;29.00;;;21.40;;
34234;SDS011;20500;49.856;20.290;2024-03-22T17:01:15;32.50;;;26.80;;
34234;SDS011;20500;49.856;20.290;2024-03-22T17:04:20;31.20;;;25.70;;
34234;SDS011;20500;49.856;20.290;2024-03-22T17:07:26;28.80;;;22.10;;
34234;SDS011;20500;49.856;20.290;2024-03-22T17:10:31;29.90;;;22.30;;
34234;SDS011;20500;49.856;20.290;2024-03-22T17:13:39;28.40;;;21.80;;
34234;SDS011;20500;49.856;20.290;2024-03-22T17:16:44;28.90;;;20.60;;
34234;SDS011;20500;49.856;20.290;2024-03-22T17:19:52;31.40;;;20.50;;
34234;SDS011;20500;49.856;20.290;2024-03-22T17:22:57;26.50;;;19.70;;
34234;SDS011;20500;49.856;20.290;2024-03-22T17:26:03;25.70;;;19.30;;
34234;SDS011;20500;49.856;20.290;2024-03-22T17:29:08;24.90;;;17.90;;
34234;SDS011;20500;49.856;20.290;2024-03-22T17:32:13;24.60;;;17.30;;
34234;SDS011;20500;49.856;20.290;2024-03-22T17:35:18;24.30;;;17.20;;
34234;SDS011;20500;49.856;20.290;2024-03-22T17:38:23;24.20;;;16.80;;
34234;SDS011;20500;49.856;20.290;2024-03-22T17:41:28;22.20;;;16.50;;
34234;SDS011;20500;49.856;20.290;2024-03-22T17:44:33;26.30;;;17.00;;
34234;SDS011;20500;49.856;20.290;2024-03-22T17:47:40;21.70;;;14.70;;
34234;SDS011;20500;49.856;20.290;2024-03-22T17:50:50;23.60;;;16.70;;
34234;SDS011;20500;49.856;20.290;2024-03-22T17:53:55;24.50;;;16.30;;
34234;SDS011;20500;49.856;20.290;2024-03-22T17:57:00;24.40;;;16.60;;
34234;SDS011;20500;49.856;20.290;2024-03-22T18:00:07;25.10;;;17.10;;